SHMÚ vydal meteorologické výstrahy na Wind Display warnings

HYDROLOGICAL WARNING Level 2 Display warnings

TAF

Aerodrome Forecast TAF

TAF description (Slovak)

22.02.2017 - 20:00 UTC

TAF LZSL 222000Z 2221/2306 23005KT 6000 -RA SCT005 OVC030
    PROB40 TEMPO 2221/2306 27009KT=
TAF LZZI 222000Z 2221/2306 28006KT 5000 BR SCT005 BKN030
    PROB40 TEMPO 2221/2306 VRB02KT 1200 -RA BR BKN005 OVC023=

22.02.2017 - 17:00 UTC

TAF LZSL 221700Z 2218/2303 23005KT 6000 -RA BKN013 BKN030
    TEMPO 2219/2303 27009KT 9999 SCT015 BKN050=
TAF LZPP 221700Z 2218/2303 20010KT 9999 SCT040 BKN055
    TEMPO 2218/2303 24015KT -RA SCT006 BKN040=
TAF LZZI 221700Z 2218/2303 25005KT 4000 BR SCT005 BKN020
    PROB40 TEMPO 2218/2303 VRB02KT 1200 -RA BR BKN005 OVC020=

22.02.2017 - 17:00 UTC

TAF LZIB 221700Z 2218/2318 26015KT 9999 FEW040 BKN070
    TEMPO 2218/2220 -RA SCT030 BKN050
    PROB40 TEMPO 2218/2304 29020G30KT
    BECMG 2304/2306 27010KT CAVOK=
TAF LZKZ 221700Z 2218/2318 21012KT 9999 SCT010 BKN040
    TEMPO 2218/2220 23016G26KT 4000 -RA BKN010 BKN030
    PROB30 TEMPO 2220/2318 -RA=
TAF LZTT 221700Z 2218/2318 25018KT 9999 FEW030 BKN070
    TEMPO 2218/2318 27025G35KT 5000 -RA SCT010 BKN030=

22.02.2017 - 14:00 UTC

TAF AMD LZZI 221601Z 2216/2300 25007KT 6000 -RA SCT005 BKN020
    TEMPO 2216/2300 4000 -RA BR
    PROB40 TEMPO 2216/2300 VRB02KT 1500 -RA BR BKN005 OVC020=

22.02.2017 - 14:00 UTC

TAF LZSL 221400Z 2215/2300 23006KT 6000 -RA FEW010 BKN030
    TEMPO 2215/2218 24012KT 3000 -RA BR BKN011 OVC020
    BECMG 2219/2221 27009KT 9999 SCT030 BKN050=
TAF LZPP 221400Z 2215/2300 20010KT 9999 SCT030 BKN050
    TEMPO 2215/2218 24015KT 4000 -RA SCT006 BKN020=
TAF LZZI 221400Z 2215/2300 25006KT 6000 -RA SCT005 BKN020
    TEMPO 2215/2300 24010KT 2200 -RA BR BKN005 OVC020=

22.02.2017 - 11:00 UTC

TAF AMD LZSL 221242Z 2212/2221 23006KT 6000 -RA FEW010 BKN030
    TEMPO 2212/2218 24012KT 3000 -RA BR BKN011 OVC020
    TEMPO 2212/2214 1000 RA BR BKN003 BKN011=

22.02.2017 - 11:00 UTC

TAF LZIB 221100Z 2212/2312 22011KT 9999 FEW030 BKN060
    TEMPO 2212/2216 5000 -RA SCT013 BKN030 OVC050
    BECMG 2212/2214 27015KT
    PROB40 TEMPO 2214/2304 29020G30KT=
TAF LZKZ 221100Z 2212/2312 20010KT 9999 SCT020 BKN040
    TEMPO 2212/2220 23016G26KT 4000 -RA BKN010 BKN030
    BECMG 2222/2300 9999 SCT040 BKN090=
TAF LZTT 221100Z 2212/2312 25018KT 9999 FEW030 BKN070
    TEMPO 2212/2312 27025G35KT 5000 -RA SCT012 BKN030=

22.02.2017 - 11:00 UTC

TAF LZSL 221100Z 2212/2221 23008KT 7000 -RA FEW010 BKN030
    TEMPO 2212/2218 24012KT 3000 RA BR BKN011 OVC020=
TAF LZPP 221100Z 2212/2221 20010KT 7000 -RA SCT020 BKN045
    TEMPO 2212/2218 24015KT 3000 -RA BR SCT006 BKN020=
TAF LZZI 221100Z 2212/2221 25006KT 6000 -RA SCT005 BKN020
    TEMPO 2212/2221 24010KT 2200 -RA BR BKN005 OVC020=

22.02.2017 - 05:00 UTC

TAF AMD LZKZ 220935Z 2209/2306 VRB02KT 1500 BR SCT002 BKN004
    TEMPO 2209/2210 0500 FZFG OVC001
    BECMG 2209/2211 21009KT 3000 BR BKN010
    BECMG 2210/2212 22013KT 7000 SCT012 BKN050
    TEMPO 2212/2220 23016G26KT 5000 -RA SCT010 BKN030 OVC070
    BECMG 2302/2304 9999 SCT040 BKN090=

22.02.2017 - 08:00 UTC

TAF AMD LZPP 220933Z 2209/2218 23010KT 7000 -RA SCT020 BKN045
    TEMPO 2209/2218 VRB02KT 3000 -RA BR SCT005 BKN020
    PROB40 2210/2217 24015KT=
TAF AMD LZZI 220933Z 2209/2218 VRB02KT 5000 BR SCT005 BKN020
    TEMPO 2209/2218 25006KT 2200 -RA BR BKN005 OVC020
    PROB30 TEMPO 2209/2211 1200 -RA BR
    TEMPO 2210/2217 24010KT=

22.02.2017 - 08:00 UTC

TAF LZSL 220800Z 2209/2218 23003KT 9999 FEW030 BKN060
    BECMG 2209/2211 24008KT 7000 -RA SCT020 BKN030
    TEMPO 2210/2218 24012KT 3000 RA BR SCT011 OVC020=
TAF LZPP 220800Z 2209/2218 17005KT 9999 BR SCT030 BKN045
    BECMG 2209/2210 23010KT 6000 -RA SCT010 BKN030
    TEMPO 2210/2217 24015KT=
TAF LZZI 220800Z 2209/2218 VRB02KT 5000 BR SCT005 BKN020
    TEMPO 2209/2218 25006KT 2200 -RA BR BKN005 OVC020
    TEMPO 2210/2217 24010KT=

22.02.2017 - 05:00 UTC

TAF AMD LZPP 220738Z 2207/2215 17005KT 9999 SCT035 BKN045
    BECMG 2208/2210 22010KT 6000 -RA SCT010 BKN030
    TEMPO 2210/2215 24015KT=

22.02.2017 - 05:00 UTC

TAF AMD LZKZ 220729Z 2207/2306 VRB02KT 1500 BR SCT002 BKN004
    TEMPO 2207/2209 0200 FZFG OVC001
    BECMG 2208/2210 21009KT 3000 BR BKN010
    BECMG 2210/2212 22013KT 7000 SCT012 BKN050
    TEMPO 2212/2220 23016G26KT 5000 -RA SCT010 BKN030 OVC070
    BECMG 2302/2304 9999 SCT040 BKN090=

22.02.2017 - 05:00 UTC

TAF LZIB 220500Z 2206/2306 23006KT 9999 FEW020 BKN060
    BECMG 2206/2208 23011KT
    TEMPO 2206/2214 5000 -RA SCT013 BKN035 OVC050
    BECMG 2212/2214 26015KT
    PROB40 TEMPO 2214/2304 28020G30KT=
TAF LZKZ 220500Z 2206/2306 VRB02KT 1500 BR SCT002 BKN004
    TEMPO 2206/2207 0200 FZFG OVC001
    BECMG 2207/2209 21009KT 3000 BR BKN007
    BECMG 2209/2211 22013KT 7000 SCT012 BKN050
    TEMPO 2212/2220 23016G26KT 5000 -RA SCT010 BKN030 OVC070
    BECMG 2302/2304 9999 SCT040 BKN090=
TAF LZTT 220500Z 2206/2306 25005KT 9999 FEW030 BKN070
    BECMG 2207/2209 26012KT SCT025 BKN050
    BECMG 2209/2211 27020KT
    TEMPO 2212/2306 27025G35KT 6000 -RA SCT015 BKN035=

22.02.2017 - 05:00 UTC

TAF LZSL 220500Z 2206/2215 23005KT 9999 FEW030 SCT050
    PROB30 TEMPO 2206/2208 VRB02KT 2000 BR SCT007
    BECMG 2208/2210 22008KT 6000 -RA SCT020 BKN040
    TEMPO 2210/2215 24012KT 3000 RA BR SCT011 OVC030=
TAF LZPP 220500Z 2206/2215 17005KT 2000 BR SCT007
    PROB40 TEMPO 2206/2207 VRB02KT 0700 FZFG BKN002
    BECMG 2208/2210 22010KT 6000 -RA SCT010 BKN033 OVC060
    TEMPO 2210/2215 24015KT=
TAF LZZI 220500Z 2206/2215 VRB02KT 1300 BR SCT002 BKN005
    TEMPO 2206/2207 0200 FG OVC001
    BECMG 2207/2209 25006KT 5000 -RA BR SCT009 BKN020 OVC040
    TEMPO 2210/2215 24010KT 2000 RA BR BKN010 OVC022=

22.02.2017 - 02:00 UTC

TAF LZSL 220200Z 2203/2212 23005KT 9999 FEW030 SCT050
    PROB30 TEMPO 2203/2208 VRB02KT 3000 BR SCT007
    TEMPO 2209/2212 24008KT 6000 -RA SCT020 OVC040=
TAF LZZI 220200Z 2203/2212 VRB02KT 2000 BR SCT002 BKN005
    TEMPO 2203/2207 0200 FG OVC001
    BECMG 2207/2209 25006KT 5000 -RA BR SCT009 BKN020 OVC050
    TEMPO 2209/2212 24010KT=

skok na menu ↑


skok na začiatok stránky ↑